sensor_id;sensor_type;location;lat;lon;timestamp;pressure;altitude;pressure_sealevel;temperature;humidity
34482;BME280;20720;48.886;9.388;2023-02-02T00:01:30;99000.25;;;8.11;100.00
34482;BME280;20720;48.886;9.388;2023-02-02T00:03:56;99002.28;;;7.77;100.00
34482;BME280;20720;48.886;9.388;2023-02-02T00:06:23;98994.25;;;7.79;100.00
34482;BME280;20720;48.886;9.388;2023-02-02T00:08:49;98994.38;;;8.01;100.00
34482;BME280;20720;48.886;9.388;2023-02-02T00:11:16;98981.50;;;7.84;100.00
34482;BME280;20720;48.886;9.388;2023-02-02T00:13:42;98978.03;;;8.07;100.00
34482;BME280;20720;48.886;9.388;2023-02-02T00:18:52;98992.78;;;7.76;100.00
34482;BME280;20720;48.886;9.388;2023-02-02T00:21:17;98984.75;;;8.02;100.00
34482;BME280;20720;48.886;9.388;2023-02-02T00:23:43;98979.34;;;8.03;100.00
34482;BME280;20720;48.886;9.388;2023-02-02T00:26:08;98984.88;;;8.16;100.00
34482;BME280;20720;48.886;9.388;2023-02-02T00:28:34;98983.28;;;7.91;100.00
34482;BME280;20720;48.886;9.388;2023-02-02T00:30:59;98993.06;;;8.05;100.00
34482;BME280;20720;48.886;9.388;2023-02-02T00:33:24;98988.25;;;8.49;100.00
34482;BME280;20720;48.886;9.388;2023-02-02T00:35:53;98981.94;;;8.11;100.00
34482;BME280;20720;48.886;9.388;2023-02-02T00:38:18;98988.03;;;7.88;100.00
34482;BME280;20720;48.886;9.388;2023-02-02T00:40:44;98993.41;;;8.02;100.00
34482;BME280;20720;48.886;9.388;2023-02-02T00:43:09;98988.38;;;7.77;100.00
34482;BME280;20720;48.886;9.388;2023-02-02T00:45:35;98991.94;;;7.92;100.00
34482;BME280;20720;48.886;9.388;2023-02-02T00:48:00;98973.81;;;7.74;100.00
34482;BME280;20720;48.886;9.388;2023-02-02T00:50:25;98981.00;;;8.04;100.00
34482;BME280;20720;48.886;9.388;2023-02-02T00:52:51;98974.47;;;7.84;100.00
34482;BME280;20720;48.886;9.388;2023-02-02T00:55:16;98979.69;;;7.84;100.00
34482;BME280;20720;48.886;9.388;2023-02-02T00:57:42;98975.78;;;7.88;100.00
34482;BME280;20720;48.886;9.388;2023-02-02T01:00:15;98971.19;;;7.98;100.00
34482;BME280;20720;48.886;9.388;2023-02-02T01:02:41;98974.25;;;8.26;100.00
34482;BME280;20720;48.886;9.388;2023-02-02T01:05:08;98977.38;;;7.97;100.00
34482;BME280;20720;48.886;9.388;2023-02-02T01:07:33;98969.88;;;7.94;100.00
34482;BME280;20720;48.886;9.388;2023-02-02T01:09:58;98968.72;;;7.97;100.00
34482;BME280;20720;48.886;9.388;2023-02-02T01:12:24;98977.38;;;8.05;100.00
34482;BME280;20720;48.886;9.388;2023-02-02T01:14:49;98991.47;;;7.88;100.00
34482;BME280;20720;48.886;9.388;2023-02-02T01:17:15;98985.44;;;7.72;100.00
34482;BME280;20720;48.886;9.388;2023-02-02T01:19:40;98989.84;;;7.71;100.00
34482;BME280;20720;48.886;9.388;2023-02-02T01:22:06;98978.69;;;8.09;100.00
34482;BME280;20720;48.886;9.388;2023-02-02T01:24:31;98983.97;;;7.69;100.00
34482;BME280;20720;48.886;9.388;2023-02-02T01:26:57;98981.34;;;7.77;100.00
34482;BME280;20720;48.886;9.388;2023-02-02T01:29:22;98965.91;;;8.14;100.00
34482;BME280;20720;48.886;9.388;2023-02-02T01:31:48;98970.81;;;8.09;100.00
34482;BME280;20720;48.886;9.388;2023-02-02T01:34:13;98973.47;;;7.93;100.00
34482;BME280;20720;48.886;9.388;2023-02-02T01:36:39;98977.09;;;7.76;100.00
34482;BME280;20720;48.886;9.388;2023-02-02T01:39:04;98980.34;;;7.86;100.00
34482;BME280;20720;48.886;9.388;2023-02-02T01:41:29;98985.41;;;8.04;100.00
34482;BME280;20720;48.886;9.388;2023-02-02T01:43:57;98973.44;;;8.09;100.00
34482;BME280;20720;48.886;9.388;2023-02-02T01:46:29;98987.53;;;7.92;100.00
34482;BME280;20720;48.886;9.388;2023-02-02T01:49:05;98973.81;;;7.74;100.00
34482;BME280;20720;48.886;9.388;2023-02-02T01:51:40;98977.59;;;7.80;100.00
34482;BME280;20720;48.886;9.388;2023-02-02T01:54:14;98984.09;;;7.84;100.00
34482;BME280;20720;48.886;9.388;2023-02-02T01:56:56;98970.56;;;7.72;100.00
34482;BME280;20720;48.886;9.388;2023-02-02T01:59:22;98966.13;;;7.73;100.00
34482;BME280;20720;48.886;9.388;2023-02-02T02:01:49;98970.19;;;7.99;100.00
34482;BME280;20720;48.886;9.388;2023-02-02T02:04:16;98966.63;;;7.76;100.00
34482;BME280;20720;48.886;9.388;2023-02-02T02:06:42;98962.53;;;7.90;100.00
34482;BME280;20720;48.886;9.388;2023-02-02T02:09:09;98956.03;;;7.78;100.00
34482;BME280;20720;48.886;9.388;2023-02-02T02:11:35;98956.19;;;7.68;100.00
34482;BME280;20720;48.886;9.388;2023-02-02T02:14:03;98953.41;;;7.78;100.00
34482;BME280;20720;48.886;9.388;2023-02-02T02:17:12;98959.47;;;7.62;100.00
34482;BME280;20720;48.886;9.388;2023-02-02T02:26:13;98961.69;;;8.05;100.00
34482;BME280;20720;48.886;9.388;2023-02-02T02:34:06;98955.63;;;8.05;100.00
34482;BME280;20720;48.886;9.388;2023-02-02T02:36:57;98949.47;;;7.66;100.00
34482;BME280;20720;48.886;9.388;2023-02-02T02:39:30;98943.13;;;7.68;100.00
34482;BME280;20720;48.886;9.388;2023-02-02T02:42:02;98936.84;;;7.93;100.00
34482;BME280;20720;48.886;9.388;2023-02-02T02:44:29;98928.66;;;8.04;100.00
34482;BME280;20720;48.886;9.388;2023-02-02T02:46:56;98948.66;;;7.65;100.00
34482;BME280;20720;48.886;9.388;2023-02-02T02:49:21;98935.59;;;7.57;100.00
34482;BME280;20720;48.886;9.388;2023-02-02T02:51:49;98936.59;;;7.72;100.00
34482;BME280;20720;48.886;9.388;2023-02-02T02:57:10;98929.94;;;8.08;100.00
34482;BME280;20720;48.886;9.388;2023-02-02T03:00:00;98935.41;;;7.83;100.00
34482;BME280;20720;48.886;9.388;2023-02-02T03:02:43;98938.06;;;8.21;100.00
34482;BME280;20720;48.886;9.388;2023-02-02T03:10:23;98941.47;;;7.83;100.00
34482;BME280;20720;48.886;9.388;2023-02-02T03:12:50;98933.06;;;8.12;100.00
34482;BME280;20720;48.886;9.388;2023-02-02T03:15:17;98947.69;;;7.50;100.00
34482;BME280;20720;48.886;9.388;2023-02-02T03:17:44;98940.16;;;7.71;100.00
34482;BME280;20720;48.886;9.388;2023-02-02T03:20:12;98936.53;;;7.88;100.00
34482;BME280;20720;48.886;9.388;2023-02-02T03:22:37;98949.44;;;7.82;100.00
34482;BME280;20720;48.886;9.388;2023-02-02T03:25:04;98947.03;;;7.72;100.00
34482;BME280;20720;48.886;9.388;2023-02-02T03:27:29;98938.00;;;7.91;100.00
34482;BME280;20720;48.886;9.388;2023-02-02T03:29:54;98937.88;;;7.60;100.00
34482;BME280;20720;48.886;9.388;2023-02-02T03:32:20;98946.03;;;7.81;100.00
34482;BME280;20720;48.886;9.388;2023-02-02T03:34:45;98939.16;;;7.88;100.00
34482;BME280;20720;48.886;9.388;2023-02-02T03:37:11;98949.28;;;7.91;100.00
34482;BME280;20720;48.886;9.388;2023-02-02T03:39:36;98947.41;;;8.32;100.00
34482;BME280;20720;48.886;9.388;2023-02-02T03:42:01;98955.84;;;7.79;100.00
34482;BME280;20720;48.886;9.388;2023-02-02T03:44:26;98958.03;;;8.22;100.00
34482;BME280;20720;48.886;9.388;2023-02-02T03:46:52;98959.59;;;7.85;100.00
34482;BME280;20720;48.886;9.388;2023-02-02T03:49:18;98958.69;;;8.16;100.00
34482;BME280;20720;48.886;9.388;2023-02-02T03:51:43;98960.00;;;8.12;100.00
34482;BME280;20720;48.886;9.388;2023-02-02T03:54:09;98960.38;;;7.93;100.00
34482;BME280;20720;48.886;9.388;2023-02-02T03:56:34;98971.19;;;7.74;100.00
34482;BME280;20720;48.886;9.388;2023-02-02T03:58:59;98966.75;;;8.07;100.00
34482;BME280;20720;48.886;9.388;2023-02-02T04:01:27;98966.44;;;7.86;100.00
34482;BME280;20720;48.886;9.388;2023-02-02T04:03:53;98973.16;;;7.96;100.00
34482;BME280;20720;48.886;9.388;2023-02-02T04:06:18;98970.84;;;8.01;100.00
34482;BME280;20720;48.886;9.388;2023-02-02T04:08:44;98972.16;;;7.97;100.00
34482;BME280;20720;48.886;9.388;2023-02-02T04:11:10;98979.00;;;8.30;100.00
34482;BME280;20720;48.886;9.388;2023-02-02T04:13:35;98986.31;;;8.35;100.00
34482;BME280;20720;48.886;9.388;2023-02-02T04:16:00;98977.03;;;8.32;100.00
34482;BME280;20720;48.886;9.388;2023-02-02T04:18:26;98985.88;;;8.15;100.00
34482;BME280;20720;48.886;9.388;2023-02-02T04:20:59;98981.94;;;8.19;100.00
34482;BME280;20720;48.886;9.388;2023-02-02T04:23:25;98996.34;;;8.07;100.00
34482;BME280;20720;48.886;9.388;2023-02-02T04:25:51;98998.28;;;8.29;100.00
34482;BME280;20720;48.886;9.388;2023-02-02T04:28:16;98993.25;;;7.96;100.00
34482;BME280;20720;48.886;9.388;2023-02-02T04:30:41;99004.38;;;8.06;100.00
34482;BME280;20720;48.886;9.388;2023-02-02T04:33:07;99000.63;;;8.00;100.00
34482;BME280;20720;48.886;9.388;2023-02-02T04:35:32;98990.22;;;8.39;100.00
34482;BME280;20720;48.886;9.388;2023-02-02T04:37:57;99002.88;;;8.03;100.00
34482;BME280;20720;48.886;9.388;2023-02-02T04:40:23;99012.38;;;8.04;100.00
34482;BME280;20720;48.886;9.388;2023-02-02T04:42:48;99018.59;;;8.11;100.00
34482;BME280;20720;48.886;9.388;2023-02-02T04:45:13;99015.31;;;8.17;100.00
34482;BME280;20720;48.886;9.388;2023-02-02T04:47:39;99019.41;;;8.12;100.00
34482;BME280;20720;48.886;9.388;2023-02-02T04:50:04;99015.66;;;7.90;100.00
34482;BME280;20720;48.886;9.388;2023-02-02T04:52:30;99009.56;;;8.22;100.00
34482;BME280;20720;48.886;9.388;2023-02-02T04:54:55;99015.97;;;8.11;100.00
34482;BME280;20720;48.886;9.388;2023-02-02T04:57:20;99020.19;;;8.12;100.00
34482;BME280;20720;48.886;9.388;2023-02-02T04:59:45;99015.63;;;8.06;100.00
34482;BME280;20720;48.886;9.388;2023-02-02T05:02:11;99026.69;;;8.48;100.00
34482;BME280;20720;48.886;9.388;2023-02-02T05:04:36;99026.59;;;8.26;100.00
34482;BME280;20720;48.886;9.388;2023-02-02T05:07:01;99040.50;;;8.34;100.00
34482;BME280;20720;48.886;9.388;2023-02-02T05:09:26;99040.41;;;8.59;100.00
34482;BME280;20720;48.886;9.388;2023-02-02T05:11:52;99040.81;;;8.15;100.00
34482;BME280;20720;48.886;9.388;2023-02-02T05:14:17;99031.66;;;8.19;100.00
34482;BME280;20720;48.886;9.388;2023-02-02T05:16:44;99044.75;;;7.95;100.00
34482;BME280;20720;48.886;9.388;2023-02-02T05:19:10;99047.00;;;8.38;100.00
34482;BME280;20720;48.886;9.388;2023-02-02T05:21:36;99040.47;;;8.18;100.00
34482;BME280;20720;48.886;9.388;2023-02-02T05:24:01;99042.13;;;8.19;100.00
34482;BME280;20720;48.886;9.388;2023-02-02T05:26:28;99033.91;;;8.38;100.00
34482;BME280;20720;48.886;9.388;2023-02-02T05:28:54;99049.16;;;8.11;100.00
34482;BME280;20720;48.886;9.388;2023-02-02T05:31:20;99047.72;;;8.24;100.00
34482;BME280;20720;48.886;9.388;2023-02-02T05:33:45;99042.97;;;8.12;100.00
34482;BME280;20720;48.886;9.388;2023-02-02T05:36:11;99041.78;;;8.22;100.00
34482;BME280;20720;48.886;9.388;2023-02-02T05:38:37;99045.72;;;8.18;100.00
34482;BME280;20720;48.886;9.388;2023-02-02T05:41:03;99057.75;;;8.60;100.00
34482;BME280;20720;48.886;9.388;2023-02-02T05:43:29;99043.94;;;8.27;100.00
34482;BME280;20720;48.886;9.388;2023-02-02T05:45:55;99057.84;;;8.11;100.00
34482;BME280;20720;48.886;9.388;2023-02-02T05:48:21;99060.94;;;8.15;100.00
34482;BME280;20720;48.886;9.388;2023-02-02T05:50:54;99054.41;;;8.11;100.00
34482;BME280;20720;48.886;9.388;2023-02-02T05:53:20;99047.00;;;8.38;100.00
34482;BME280;20720;48.886;9.388;2023-02-02T05:55:46;99051.44;;;8.38;100.00
34482;BME280;20720;48.886;9.388;2023-02-02T05:58:11;99052.91;;;8.16;100.00
34482;BME280;20720;48.886;9.388;2023-02-02T06:00:36;99055.84;;;8.21;100.00
34482;BME280;20720;48.886;9.388;2023-02-02T06:03:02;99058.97;;;8.09;100.00
34482;BME280;20720;48.886;9.388;2023-02-02T06:05:27;99057.50;;;8.22;100.00
34482;BME280;20720;48.886;9.388;2023-02-02T06:07:52;99061.94;;;8.30;100.00
34482;BME280;20720;48.886;9.388;2023-02-02T06:10:18;99069.59;;;7.99;100.00
34482;BME280;20720;48.886;9.388;2023-02-02T06:12:43;99068.31;;;8.11;100.00
34482;BME280;20720;48.886;9.388;2023-02-02T06:15:09;99071.22;;;8.16;100.00
34482;BME280;20720;48.886;9.388;2023-02-02T06:17:34;99074.78;;;8.55;100.00
34482;BME280;20720;48.886;9.388;2023-02-02T06:19:59;99079.25;;;8.23;100.00
34482;BME280;20720;48.886;9.388;2023-02-02T06:22:24;99084.31;;;8.16;100.00
34482;BME280;20720;48.886;9.388;2023-02-02T06:24:50;99081.03;;;8.14;100.00
34482;BME280;20720;48.886;9.388;2023-02-02T06:27:18;99086.63;;;8.19;100.00
34482;BME280;20720;48.886;9.388;2023-02-02T06:29:43;99097.44;;;8.00;100.00
34482;BME280;20720;48.886;9.388;2023-02-02T06:32:08;99089.91;;;8.37;100.00
34482;BME280;20720;48.886;9.388;2023-02-02T06:34:33;99098.41;;;8.15;100.00
34482;BME280;20720;48.886;9.388;2023-02-02T06:36:59;99088.91;;;8.38;100.00
34482;BME280;20720;48.886;9.388;2023-02-02T06:39:24;99093.81;;;8.17;100.00
34482;BME280;20720;48.886;9.388;2023-02-02T06:41:49;99102.16;;;8.21;100.00
34482;BME280;20720;48.886;9.388;2023-02-02T06:44:16;99094.31;;;8.13;100.00
34482;BME280;20720;48.886;9.388;2023-02-02T06:46:43;99100.31;;;8.62;100.00
34482;BME280;20720;48.886;9.388;2023-02-02T06:49:08;99093.16;;;7.99;100.00
34482;BME280;20720;48.886;9.388;2023-02-02T06:51:33;99094.47;;;8.11;100.00
34482;BME280;20720;48.886;9.388;2023-02-02T06:53:59;99103.59;;;8.23;100.00
34482;BME280;20720;48.886;9.388;2023-02-02T06:56:24;99081.22;;;8.37;100.00
34482;BME280;20720;48.886;9.388;2023-02-02T06:58:50;99095.44;;;7.78;100.00
34482;BME280;20720;48.886;9.388;2023-02-02T07:01:15;99099.41;;;8.30;100.00
34482;BME280;20720;48.886;9.388;2023-02-02T07:03:41;99102.31;;;8.11;100.00
34482;BME280;20720;48.886;9.388;2023-02-02T07:06:18;99096.75;;;8.46;100.00
34482;BME280;20720;48.886;9.388;2023-02-02T07:08:45;99104.59;;;8.22;100.00
34482;BME280;20720;48.886;9.388;2023-02-02T07:11:11;99098.38;;;8.23;100.00
34482;BME280;20720;48.886;9.388;2023-02-02T07:13:36;99106.06;;;8.49;100.00
34482;BME280;20720;48.886;9.388;2023-02-02T07:16:05;99107.56;;;8.27;100.00
34482;BME280;20720;48.886;9.388;2023-02-02T07:18:32;99101.00;;;8.23;100.00
34482;BME280;20720;48.886;9.388;2023-02-02T07:20:58;99097.75;;;8.29;100.00
34482;BME280;20720;48.886;9.388;2023-02-02T07:23:25;99105.59;;;8.13;100.00
34482;BME280;20720;48.886;9.388;2023-02-02T07:25:59;99108.56;;;8.34;100.00
34482;BME280;20720;48.886;9.388;2023-02-02T07:28:26;99107.38;;;8.45;100.00
34482;BME280;20720;48.886;9.388;2023-02-02T07:30:52;99110.50;;;8.40;100.00
34482;BME280;20720;48.886;9.388;2023-02-02T07:33:17;99111.19;;;8.26;100.00
34482;BME280;20720;48.886;9.388;2023-02-02T07:35:42;99104.78;;;8.45;100.00
34482;BME280;20720;48.886;9.388;2023-02-02T07:38:07;99107.56;;;8.11;100.00
34482;BME280;20720;48.886;9.388;2023-02-02T07:40:33;99098.22;;;8.41;100.00
34482;BME280;20720;48.886;9.388;2023-02-02T07:42:58;99108.84;;;7.99;100.00
34482;BME280;20720;48.886;9.388;2023-02-02T07:45:25;99108.53;;;8.10;100.00
34482;BME280;20720;48.886;9.388;2023-02-02T07:47:54;99110.34;;;8.10;100.00
34482;BME280;20720;48.886;9.388;2023-02-02T07:50:20;99104.28;;;8.41;100.00
34482;BME280;20720;48.886;9.388;2023-02-02T07:52:45;99102.81;;;8.39;100.00
34482;BME280;20720;48.886;9.388;2023-02-02T07:55:10;99115.75;;;8.32;100.00
34482;BME280;20720;48.886;9.388;2023-02-02T07:57:36;99112.44;;;8.14;100.00
34482;BME280;20720;48.886;9.388;2023-02-02T08:00:02;99107.91;;;8.24;100.00
34482;BME280;20720;48.886;9.388;2023-02-02T08:02:27;99106.56;;;8.44;100.00
34482;BME280;20720;48.886;9.388;2023-02-02T08:04:52;99106.91;;;8.17;100.00
34482;BME280;20720;48.886;9.388;2023-02-02T08:07:18;99094.47;;;8.35;100.00
34482;BME280;20720;48.886;9.388;2023-02-02T08:09:45;99099.00;;;8.57;100.00
34482;BME280;20720;48.886;9.388;2023-02-02T08:12:12;99101.34;;;8.20;100.00
34482;BME280;20720;48.886;9.388;2023-02-02T08:14:37;99104.28;;;8.09;100.00
34482;BME280;20720;48.886;9.388;2023-02-02T08:17:02;99113.44;;;8.29;100.00
34482;BME280;20720;48.886;9.388;2023-02-02T08:19:28;99113.94;;;8.57;100.00
34482;BME280;20720;48.886;9.388;2023-02-02T08:21:53;99133.06;;;8.17;100.00
34482;BME280;20720;48.886;9.388;2023-02-02T08:24:18;99140.59;;;8.44;100.00
34482;BME280;20720;48.886;9.388;2023-02-02T08:26:43;99132.41;;;8.55;100.00
34482;BME280;20720;48.886;9.388;2023-02-02T08:29:10;99145.84;;;8.44;100.00
34482;BME280;20720;48.886;9.388;2023-02-02T08:31:38;99142.09;;;9.10;100.00
34482;BME280;20720;48.886;9.388;2023-02-02T08:34:06;99159.03;;;8.91;100.00
34482;BME280;20720;48.886;9.388;2023-02-02T08:36:31;99164.16;;;8.52;100.00
34482;BME280;20720;48.886;9.388;2023-02-02T08:39:19;99171.38;;;8.67;100.00
34482;BME280;20720;48.886;9.388;2023-02-02T08:41:44;99171.31;;;8.83;100.00
34482;BME280;20720;48.886;9.388;2023-02-02T08:44:14;99178.91;;;8.45;100.00
34482;BME280;20720;48.886;9.388;2023-02-02T08:46:40;99175.28;;;8.38;100.00
34482;BME280;20720;48.886;9.388;2023-02-02T08:49:07;99167.75;;;8.60;100.00
34482;BME280;20720;48.886;9.388;2023-02-02T08:51:34;99172.81;;;8.21;100.00
34482;BME280;20720;48.886;9.388;2023-02-02T08:53:59;99160.72;;;8.52;100.00
34482;BME280;20720;48.886;9.388;2023-02-02T08:56:24;99167.09;;;8.66;100.00
34482;BME280;20720;48.886;9.388;2023-02-02T08:58:52;99173.00;;;8.60;100.00
34482;BME280;20720;48.886;9.388;2023-02-02T09:01:25;99179.22;;;8.59;100.00
34482;BME280;20720;48.886;9.388;2023-02-02T09:04:02;99175.13;;;8.64;100.00
34482;BME280;20720;48.886;9.388;2023-02-02T09:06:37;99180.19;;;8.82;100.00
34482;BME280;20720;48.886;9.388;2023-02-02T09:09:04;99177.88;;;8.71;100.00
34482;BME280;20720;48.886;9.388;2023-02-02T09:11:30;99181.84;;;8.42;100.00
34482;BME280;20720;48.886;9.388;2023-02-02T09:13:57;99175.47;;;8.37;100.00
34482;BME280;20720;48.886;9.388;2023-02-02T09:16:24;99180.53;;;8.63;100.00
34482;BME280;20720;48.886;9.388;2023-02-02T09:18:49;99180.84;;;8.60;100.00
34482;BME280;20720;48.886;9.388;2023-02-02T09:21:16;99183.97;;;8.39;100.00
34482;BME280;20720;48.886;9.388;2023-02-02T09:23:43;99190.19;;;8.30;100.00
34482;BME280;20720;48.886;9.388;2023-02-02T09:28:37;99165.16;;;8.43;100.00
34482;BME280;20720;48.886;9.388;2023-02-02T09:31:03;99174.28;;;8.55;100.00
34482;BME280;20720;48.886;9.388;2023-02-02T09:33:28;99174.28;;;8.72;100.00
34482;BME280;20720;48.886;9.388;2023-02-02T09:35:53;99175.28;;;8.54;100.00
34482;BME280;20720;48.886;9.388;2023-02-02T09:38:19;99183.63;;;8.66;100.00
34482;BME280;20720;48.886;9.388;2023-02-02T09:40:44;99183.47;;;8.60;100.00
34482;BME280;20720;48.886;9.388;2023-02-02T09:45:56;99184.47;;;8.42;100.00
34482;BME280;20720;48.886;9.388;2023-02-02T09:48:35;99189.66;;;8.18;100.00
34482;BME280;20720;48.886;9.388;2023-02-02T09:51:12;99197.56;;;8.67;100.00
34482;BME280;20720;48.886;9.388;2023-02-02T09:53:49;99197.38;;;8.60;100.00
34482;BME280;20720;48.886;9.388;2023-02-02T09:56:32;99193.97;;;8.35;100.00
34482;BME280;20720;48.886;9.388;2023-02-02T09:59:00;99199.84;;;8.62;100.00
34482;BME280;20720;48.886;9.388;2023-02-02T10:01:33;99209.63;;;8.92;100.00
34482;BME280;20720;48.886;9.388;2023-02-02T10:04:14;99197.38;;;8.60;100.00
34482;BME280;20720;48.886;9.388;2023-02-02T10:06:46;99220.78;;;8.37;100.00
34482;BME280;20720;48.886;9.388;2023-02-02T10:09:27;99213.41;;;8.33;100.00
34482;BME280;20720;48.886;9.388;2023-02-02T10:15:01;99221.78;;;8.36;100.00
34482;BME280;20720;48.886;9.388;2023-02-02T10:25:54;99207.69;;;8.37;100.00
34482;BME280;20720;48.886;9.388;2023-02-02T10:28:30;99219.78;;;8.71;100.00
34482;BME280;20720;48.886;9.388;2023-02-02T10:31:00;99207.38;;;8.57;100.00
34482;BME280;20720;48.886;9.388;2023-02-02T10:33:35;99215.88;;;8.42;100.00
34482;BME280;20720;48.886;9.388;2023-02-02T10:36:23;99218.84;;;8.47;100.00
34482;BME280;20720;48.886;9.388;2023-02-02T10:39:00;99218.50;;;8.50;100.00
34482;BME280;20720;48.886;9.388;2023-02-02T10:41:55;99220.31;;;8.58;100.00
34482;BME280;20720;48.886;9.388;2023-02-02T10:44:38;99218.16;;;8.70;100.00
34482;BME280;20720;48.886;9.388;2023-02-02T10:47:11;99217.19;;;8.79;100.00
34482;BME280;20720;48.886;9.388;2023-02-02T10:49:39;99215.53;;;8.29;100.00
34482;BME280;20720;48.886;9.388;2023-02-02T10:52:47;99205.75;;;8.39;100.00
34482;BME280;20720;48.886;9.388;2023-02-02T10:55:20;99186.91;;;8.28;100.00
34482;BME280;20720;48.886;9.388;2023-02-02T10:58:03;99192.59;;;8.07;100.00
34482;BME280;20720;48.886;9.388;2023-02-02T11:00:46;99188.38;;;8.54;100.00
34482;BME280;20720;48.886;9.388;2023-02-02T11:03:19;99192.00;;;8.37;100.00
34482;BME280;20720;48.886;9.388;2023-02-02T11:05:46;99202.16;;;8.32;100.00
34482;BME280;20720;48.886;9.388;2023-02-02T11:16:32;99197.56;;;8.67;100.00
34482;BME280;20720;48.886;9.388;2023-02-02T11:18:58;99210.63;;;8.83;100.00
34482;BME280;20720;48.886;9.388;2023-02-02T11:21:24;99212.53;;;8.08;100.00
34482;BME280;20720;48.886;9.388;2023-02-02T11:24:02;99207.69;;;8.37;100.00
34482;BME280;20720;48.886;9.388;2023-02-02T11:26:48;99214.91;;;8.43;100.00
34482;BME280;20720;48.886;9.388;2023-02-02T11:29:21;99214.25;;;8.57;100.00
34482;BME280;20720;48.886;9.388;2023-02-02T11:31:50;99218.16;;;8.70;100.00
34482;BME280;20720;48.886;9.388;2023-02-02T11:34:25;99220.63;;;8.47;100.00
34482;BME280;20720;48.886;9.388;2023-02-02T11:37:12;99223.09;;;8.65;100.00
34482;BME280;20720;48.886;9.388;2023-02-02T11:39:40;99223.91;;;8.57;100.00
34482;BME280;20720;48.886;9.388;2023-02-02T11:42:07;99222.75;;;8.76;100.00
34482;BME280;20720;48.886;9.388;2023-02-02T11:44:37;99221.44;;;8.72;100.00
34482;BME280;20720;48.886;9.388;2023-02-02T11:47:04;99225.69;;;8.81;100.00
34482;BME280;20720;48.886;9.388;2023-02-02T11:49:32;99210.00;;;8.48;100.00
34482;BME280;20720;48.886;9.388;2023-02-02T11:52:04;99212.28;;;8.60;100.00
34482;BME280;20720;48.886;9.388;2023-02-02T11:54:32;99211.09;;;8.78;100.00
34482;BME280;20720;48.886;9.388;2023-02-02T11:57:00;99211.97;;;8.63;100.00
34482;BME280;20720;48.886;9.388;2023-02-02T11:59:30;99216.81;;;8.90;100.00
34482;BME280;20720;48.886;9.388;2023-02-02T12:04:37;99219.00;;;8.38;100.00
34482;BME280;20720;48.886;9.388;2023-02-02T12:07:28;99219.78;;;8.22;100.00
34482;BME280;20720;48.886;9.388;2023-02-02T12:09:59;99216.16;;;8.23;100.00
34482;BME280;20720;48.886;9.388;2023-02-02T12:12:56;99210.44;;;8.20;100.00
34482;BME280;20720;48.886;9.388;2023-02-02T12:15:58;99214.09;;;8.27;100.00
34482;BME280;20720;48.886;9.388;2023-02-02T12:18:50;99223.69;;;8.18;100.00
34482;BME280;20720;48.886;9.388;2023-02-02T12:30:22;99199.50;;;8.48;100.00
34482;BME280;20720;48.886;9.388;2023-02-02T12:33:21;99198.31;;;8.11;100.00
34482;BME280;20720;48.886;9.388;2023-02-02T12:38:57;99195.75;;;8.43;100.00
34482;BME280;20720;48.886;9.388;2023-02-02T12:44:31;99202.75;;;8.02;100.00
34482;BME280;20720;48.886;9.388;2023-02-02T12:47:41;99194.25;;;8.16;100.00
34482;BME280;20720;48.886;9.388;2023-02-02T12:55:51;99177.22;;;8.12;100.00
34482;BME280;20720;48.886;9.388;2023-02-02T12:58:59;99185.66;;;7.66;100.00
34482;BME280;20720;48.886;9.388;2023-02-02T13:04:59;99181.97;;;8.09;100.00
34482;BME280;20720;48.886;9.388;2023-02-02T13:08:05;99182.53;;;8.36;100.00
34482;BME280;20720;48.886;9.388;2023-02-02T13:13:02;99194.59;;;8.29;100.00
34482;BME280;20720;48.886;9.388;2023-02-02T13:15:34;99183.25;;;8.05;100.00
34482;BME280;20720;48.886;9.388;2023-02-02T13:18:05;99191.94;;;8.21;100.00
34482;BME280;20720;48.886;9.388;2023-02-02T13:20:40;99189.31;;;7.97;100.00
34482;BME280;20720;48.886;9.388;2023-02-02T13:23:12;99187.03;;;8.10;100.00
34482;BME280;20720;48.886;9.388;2023-02-02T13:26:03;99197.19;;;8.13;100.00
34482;BME280;20720;48.886;9.388;2023-02-02T13:31:27;99196.91;;;8.32;100.00
34482;BME280;20720;48.886;9.388;2023-02-02T13:34:04;99195.91;;;8.33;100.00
34482;BME280;20720;48.886;9.388;2023-02-02T13:36:34;99198.84;;;8.71;100.00
34482;BME280;20720;48.886;9.388;2023-02-02T13:39:13;99209.28;;;8.14;100.00
34482;BME280;20720;48.886;9.388;2023-02-02T13:41:41;99208.97;;;8.09;100.00
34482;BME280;20720;48.886;9.388;2023-02-02T13:44:24;99220.25;;;8.18;100.00
34482;BME280;20720;48.886;9.388;2023-02-02T13:46:55;99224.06;;;8.31;100.00
34482;BME280;20720;48.886;9.388;2023-02-02T13:49:31;99229.63;;;8.52;100.00
34482;BME280;20720;48.886;9.388;2023-02-02T13:52:40;99231.75;;;8.33;100.00
34482;BME280;20720;48.886;9.388;2023-02-02T14:00:27;99249.59;;;8.53;100.00
34482;BME280;20720;48.886;9.388;2023-02-02T14:03:00;99251.06;;;8.56;100.00
34482;BME280;20720;48.886;9.388;2023-02-02T14:06:01;99249.28;;;8.65;100.00
34482;BME280;20720;48.886;9.388;2023-02-02T14:08:28;99255.97;;;8.67;100.00
34482;BME280;20720;48.886;9.388;2023-02-02T14:10:57;99247.31;;;8.83;100.00
34482;BME280;20720;48.886;9.388;2023-02-02T14:13:28;99245.69;;;8.74;100.00
34482;BME280;20720;48.886;9.388;2023-02-02T14:34:55;99267.59;;;8.89;100.00
34482;BME280;20720;48.886;9.388;2023-02-02T14:48:40;99277.91;;;8.90;100.00
34482;BME280;20720;48.886;9.388;2023-02-02T14:51:15;99283.00;;;8.68;100.00
34482;BME280;20720;48.886;9.388;2023-02-02T14:53:56;99284.31;;;8.72;100.00
34482;BME280;20720;48.886;9.388;2023-02-02T14:56:39;99280.31;;;9.24;100.00
34482;BME280;20720;48.886;9.388;2023-02-02T14:59:05;99286.00;;;9.52;100.00
34482;BME280;20720;48.886;9.388;2023-02-02T15:01:33;99280.69;;;9.21;100.00
34482;BME280;20720;48.886;9.388;2023-02-02T15:06:38;99283.66;;;8.78;100.00
34482;BME280;20720;48.886;9.388;2023-02-02T15:15:19;99289.38;;;9.13;100.00
34482;BME280;20720;48.886;9.388;2023-02-02T15:24:57;99309.19;;;9.16;100.00